sensor_id;sensor_type;location;lat;lon;timestamp;temperature;humidity
70807;DHT22;58882;52.170;5.386;2022-07-06T00:00:12;19.90;49.00
70807;DHT22;58882;52.170;5.386;2022-07-06T00:02:59;19.90;49.00
70807;DHT22;58882;52.170;5.386;2022-07-06T00:05:33;19.90;49.20
70807;DHT22;58882;52.170;5.386;2022-07-06T00:08:27;19.90;49.00
70807;DHT22;58882;52.170;5.386;2022-07-06T00:11:07;20.00;49.20
70807;DHT22;58882;52.170;5.386;2022-07-06T00:13:54;19.80;49.20
70807;DHT22;58882;52.170;5.386;2022-07-06T00:16:36;19.80;50.40
70807;DHT22;58882;52.170;5.386;2022-07-06T00:19:23;19.80;49.40
70807;DHT22;58882;52.170;5.386;2022-07-06T00:22:10;19.90;49.40
70807;DHT22;58882;52.170;5.386;2022-07-06T00:25:05;19.80;49.40
70807;DHT22;58882;52.170;5.386;2022-07-06T00:27:45;19.90;49.50
70807;DHT22;58882;52.170;5.386;2022-07-06T00:30:32;19.90;50.40
70807;DHT22;58882;52.170;5.386;2022-07-06T00:33:05;19.90;49.40
70807;DHT22;58882;52.170;5.386;2022-07-06T00:35:59;19.90;49.40
70807;DHT22;58882;52.170;5.386;2022-07-06T00:38:33;19.90;49.60
70807;DHT22;58882;52.170;5.386;2022-07-06T00:41:27;19.90;49.30
70807;DHT22;58882;52.170;5.386;2022-07-06T00:44:08;19.80;49.40
70807;DHT22;58882;52.170;5.386;2022-07-06T00:46:56;19.80;49.50
70807;DHT22;58882;52.170;5.386;2022-07-06T00:49:36;19.80;49.50
70807;DHT22;58882;52.170;5.386;2022-07-06T00:52:49;19.70;49.70
70807;DHT22;58882;52.170;5.386;2022-07-06T00:55:36;19.70;49.60
70807;DHT22;58882;52.170;5.386;2022-07-06T00:58:30;19.60;49.70
70807;DHT22;58882;52.170;5.386;2022-07-06T01:01:10;19.60;49.80
70807;DHT22;58882;52.170;5.386;2022-07-06T01:03:57;19.60;49.80
70807;DHT22;58882;52.170;5.386;2022-07-06T01:06:38;19.50;49.80
70807;DHT22;58882;52.170;5.386;2022-07-06T01:09:32;19.50;49.90
70807;DHT22;58882;52.170;5.386;2022-07-06T01:12:12;19.50;50.00
70807;DHT22;58882;52.170;5.386;2022-07-06T01:14:59;19.50;49.90
70807;DHT22;58882;52.170;5.386;2022-07-06T01:17:40;19.50;50.00
70807;DHT22;58882;52.170;5.386;2022-07-06T01:20:32;19.50;50.30
70807;DHT22;58882;52.170;5.386;2022-07-06T01:23:12;19.50;50.30
70807;DHT22;58882;52.170;5.386;2022-07-06T01:25:59;19.50;50.10
70807;DHT22;58882;52.170;5.386;2022-07-06T01:28:40;19.60;50.20
70807;DHT22;58882;52.170;5.386;2022-07-06T01:31:27;19.60;50.20
70807;DHT22;58882;52.170;5.386;2022-07-06T01:34:09;19.60;50.20
70807;DHT22;58882;52.170;5.386;2022-07-06T01:36:56;19.60;50.00
70807;DHT22;58882;52.170;5.386;2022-07-06T01:39:36;19.70;50.10
70807;DHT22;58882;52.170;5.386;2022-07-06T01:42:30;19.70;49.90
70807;DHT22;58882;52.170;5.386;2022-07-06T01:45:10;19.70;50.00
70807;DHT22;58882;52.170;5.386;2022-07-06T01:47:57;19.70;49.90
70807;DHT22;58882;52.170;5.386;2022-07-06T01:50:37;19.70;49.90
70807;DHT22;58882;52.170;5.386;2022-07-06T01:53:31;19.70;49.80
70807;DHT22;58882;52.170;5.386;2022-07-06T01:56:11;19.60;50.20
70807;DHT22;58882;52.170;5.386;2022-07-06T01:59:03;19.60;50.20
70807;DHT22;58882;52.170;5.386;2022-07-06T02:01:37;19.60;50.20
70807;DHT22;58882;52.170;5.386;2022-07-06T02:04:31;19.60;50.30
70807;DHT22;58882;52.170;5.386;2022-07-06T02:07:05;19.60;50.30
70807;DHT22;58882;52.170;5.386;2022-07-06T02:09:59;19.60;50.30
70807;DHT22;58882;52.170;5.386;2022-07-06T02:12:39;19.50;50.40
70807;DHT22;58882;52.170;5.386;2022-07-06T02:15:26;19.50;50.40
70807;DHT22;58882;52.170;5.386;2022-07-06T02:18:06;19.50;50.50
70807;DHT22;58882;52.170;5.386;2022-07-06T02:21:03;19.50;50.50
70807;DHT22;58882;52.170;5.386;2022-07-06T02:23:43;19.60;50.50
70807;DHT22;58882;52.170;5.386;2022-07-06T02:26:30;19.60;50.30
70807;DHT22;58882;52.170;5.386;2022-07-06T02:29:10;19.60;50.30
70807;DHT22;58882;52.170;5.386;2022-07-06T02:32:04;19.60;50.40
70807;DHT22;58882;52.170;5.386;2022-07-06T02:34:44;19.60;50.40
70807;DHT22;58882;52.170;5.386;2022-07-06T02:37:39;19.60;50.30
70807;DHT22;58882;52.170;5.386;2022-07-06T02:40:26;19.60;50.40
70807;DHT22;58882;52.170;5.386;2022-07-06T02:43:21;19.50;50.30
70807;DHT22;58882;52.170;5.386;2022-07-06T02:46:01;19.50;50.40
70807;DHT22;58882;52.170;5.386;2022-07-06T02:48:49;19.50;50.60
70807;DHT22;58882;52.170;5.386;2022-07-06T02:51:29;19.50;50.80
70807;DHT22;58882;52.170;5.386;2022-07-06T02:54:17;19.40;50.60
70807;DHT22;58882;52.170;5.386;2022-07-06T02:56:57;19.40;50.60
70807;DHT22;58882;52.170;5.386;2022-07-06T02:59:44;19.40;51.00
70807;DHT22;58882;52.170;5.386;2022-07-06T03:02:25;19.40;51.00
70807;DHT22;58882;52.170;5.386;2022-07-06T03:05:13;19.30;51.10
70807;DHT22;58882;52.170;5.386;2022-07-06T03:07:54;19.30;51.00
70807;DHT22;58882;52.170;5.386;2022-07-06T03:10:43;19.20;51.10
70807;DHT22;58882;52.170;5.386;2022-07-06T03:13:23;19.10;51.40
70807;DHT22;58882;52.170;5.386;2022-07-06T03:16:10;19.10;51.60
70807;DHT22;58882;52.170;5.386;2022-07-06T03:18:50;19.10;51.60
70807;DHT22;58882;52.170;5.386;2022-07-06T03:21:37;19.20;51.70
70807;DHT22;58882;52.170;5.386;2022-07-06T03:24:17;19.20;51.80
70807;DHT22;58882;52.170;5.386;2022-07-06T03:27:04;19.20;51.60
70807;DHT22;58882;52.170;5.386;2022-07-06T03:29:44;19.20;51.60
70807;DHT22;58882;52.170;5.386;2022-07-06T03:32:31;19.20;51.50
70807;DHT22;58882;52.170;5.386;2022-07-06T03:35:12;19.20;51.60
70807;DHT22;58882;52.170;5.386;2022-07-06T03:38:01;19.30;51.60
70807;DHT22;58882;52.170;5.386;2022-07-06T03:40:42;19.40;51.60
70807;DHT22;58882;52.170;5.386;2022-07-06T03:43:29;19.40;51.70
70807;DHT22;58882;52.170;5.386;2022-07-06T03:46:11;19.40;51.60
70807;DHT22;58882;52.170;5.386;2022-07-06T03:48:58;19.40;51.60
70807;DHT22;58882;52.170;5.386;2022-07-06T03:51:38;19.40;51.70
70807;DHT22;58882;52.170;5.386;2022-07-06T03:54:25;19.40;51.70
70807;DHT22;58882;52.170;5.386;2022-07-06T03:57:06;19.40;51.70
70807;DHT22;58882;52.170;5.386;2022-07-06T03:59:53;19.40;51.70
70807;DHT22;58882;52.170;5.386;2022-07-06T04:02:40;19.50;51.60
70807;DHT22;58882;52.170;5.386;2022-07-06T04:05:38;19.50;51.40
70807;DHT22;58882;52.170;5.386;2022-07-06T04:08:19;19.50;51.40
70807;DHT22;58882;52.170;5.386;2022-07-06T04:11:07;19.50;51.40
70807;DHT22;58882;52.170;5.386;2022-07-06T04:13:47;19.50;51.40
70807;DHT22;58882;52.170;5.386;2022-07-06T04:16:41;19.60;51.20
70807;DHT22;58882;52.170;5.386;2022-07-06T04:19:22;19.60;51.30
70807;DHT22;58882;52.170;5.386;2022-07-06T04:22:09;19.50;51.40
70807;DHT22;58882;52.170;5.386;2022-07-06T04:24:42;19.50;51.50
70807;DHT22;58882;52.170;5.386;2022-07-06T04:27:36;19.40;51.50
70807;DHT22;58882;52.170;5.386;2022-07-06T04:30:17;19.40;51.70
70807;DHT22;58882;52.170;5.386;2022-07-06T04:33:14;19.40;51.80
70807;DHT22;58882;52.170;5.386;2022-07-06T04:35:54;19.50;51.80
70807;DHT22;58882;52.170;5.386;2022-07-06T04:38:48;19.50;51.60
70807;DHT22;58882;52.170;5.386;2022-07-06T04:41:28;19.50;51.70
70807;DHT22;58882;52.170;5.386;2022-07-06T04:44:15;19.40;51.60
70807;DHT22;58882;52.170;5.386;2022-07-06T04:46:55;19.40;51.80
70807;DHT22;58882;52.170;5.386;2022-07-06T04:49:42;19.40;51.80
70807;DHT22;58882;52.170;5.386;2022-07-06T04:52:22;19.50;51.80
70807;DHT22;58882;52.170;5.386;2022-07-06T04:55:09;19.50;51.60
70807;DHT22;58882;52.170;5.386;2022-07-06T04:57:51;19.50;51.50
70807;DHT22;58882;52.170;5.386;2022-07-06T05:00:38;19.50;51.50
70807;DHT22;58882;52.170;5.386;2022-07-06T05:03:18;19.50;51.60
70807;DHT22;58882;52.170;5.386;2022-07-06T05:06:12;19.40;51.60
70807;DHT22;58882;52.170;5.386;2022-07-06T05:08:52;19.50;51.70
70807;DHT22;58882;52.170;5.386;2022-07-06T05:11:42;19.50;51.50
70807;DHT22;58882;52.170;5.386;2022-07-06T05:14:22;19.40;51.70
70807;DHT22;58882;52.170;5.386;2022-07-06T05:17:10;19.50;51.70
70807;DHT22;58882;52.170;5.386;2022-07-06T05:20:09;19.50;51.60
70807;DHT22;58882;52.170;5.386;2022-07-06T05:22:56;19.50;51.40
70807;DHT22;58882;52.170;5.386;2022-07-06T05:25:36;19.60;51.40
70807;DHT22;58882;52.170;5.386;2022-07-06T05:28:23;19.60;51.30
70807;DHT22;58882;52.170;5.386;2022-07-06T05:31:12;19.60;51.30
70807;DHT22;58882;52.170;5.386;2022-07-06T05:33:59;19.70;51.30
70807;DHT22;58882;52.170;5.386;2022-07-06T05:36:39;19.70;51.00
70807;DHT22;58882;52.170;5.386;2022-07-06T05:39:33;19.80;51.20
70807;DHT22;58882;52.170;5.386;2022-07-06T05:42:30;19.80;51.00
70807;DHT22;58882;52.170;5.386;2022-07-06T05:45:11;19.90;50.90
70807;DHT22;58882;52.170;5.386;2022-07-06T05:48:04;20.10;50.80
70807;DHT22;58882;52.170;5.386;2022-07-06T05:51:04;20.10;50.50
70807;DHT22;58882;52.170;5.386;2022-07-06T05:53:52;20.10;50.50
70807;DHT22;58882;52.170;5.386;2022-07-06T05:56:25;20.20;50.40
70807;DHT22;58882;52.170;5.386;2022-07-06T05:59:19;20.30;50.30
70807;DHT22;58882;52.170;5.386;2022-07-06T06:01:59;20.30;51.10
70807;DHT22;58882;52.170;5.386;2022-07-06T06:04:46;20.40;50.10
70807;DHT22;58882;52.170;5.386;2022-07-06T06:07:19;20.40;50.00
70807;DHT22;58882;52.170;5.386;2022-07-06T06:10:15;20.40;50.00
70807;DHT22;58882;52.170;5.386;2022-07-06T06:12:58;20.50;49.80
70807;DHT22;58882;52.170;5.386;2022-07-06T06:15:45;20.50;49.60
70807;DHT22;58882;52.170;5.386;2022-07-06T06:18:18;20.60;49.60
70807;DHT22;58882;52.170;5.386;2022-07-06T06:21:20;20.60;49.40
70807;DHT22;58882;52.170;5.386;2022-07-06T06:23:53;20.70;49.20
70807;DHT22;58882;52.170;5.386;2022-07-06T06:26:47;20.70;49.20
70807;DHT22;58882;52.170;5.386;2022-07-06T06:29:27;20.80;49.00
70807;DHT22;58882;52.170;5.386;2022-07-06T06:32:23;20.80;48.90
70807;DHT22;58882;52.170;5.386;2022-07-06T06:35:04;20.90;49.70
70807;DHT22;58882;52.170;5.386;2022-07-06T06:37:52;21.00;48.60
70807;DHT22;58882;52.170;5.386;2022-07-06T06:40:25;21.10;48.50
70807;DHT22;58882;52.170;5.386;2022-07-06T06:43:19;21.10;48.30
70807;DHT22;58882;52.170;5.386;2022-07-06T06:46:05;21.20;48.20
70807;DHT22;58882;52.170;5.386;2022-07-06T06:48:52;21.30;48.10
70807;DHT22;58882;52.170;5.386;2022-07-06T06:51:32;21.40;47.90
70807;DHT22;58882;52.170;5.386;2022-07-06T06:54:20;21.50;48.60
70807;DHT22;58882;52.170;5.386;2022-07-06T06:57:00;21.70;47.40
70807;DHT22;58882;52.170;5.386;2022-07-06T06:59:47;21.80;46.80
70807;DHT22;58882;52.170;5.386;2022-07-06T07:02:27;21.80;46.20
70807;DHT22;58882;52.170;5.386;2022-07-06T07:05:14;21.90;46.00
70807;DHT22;58882;52.170;5.386;2022-07-06T07:07:54;21.80;45.40
70807;DHT22;58882;52.170;5.386;2022-07-06T07:10:48;21.90;45.40
70807;DHT22;58882;52.170;5.386;2022-07-06T07:13:28;21.80;45.20
70807;DHT22;58882;52.170;5.386;2022-07-06T07:16:15;21.90;45.20
70807;DHT22;58882;52.170;5.386;2022-07-06T07:18:57;22.00;45.00
70807;DHT22;58882;52.170;5.386;2022-07-06T07:21:44;21.90;44.90
70807;DHT22;58882;52.170;5.386;2022-07-06T07:24:24;22.00;44.60
70807;DHT22;58882;52.170;5.386;2022-07-06T07:27:11;22.10;44.40
70807;DHT22;58882;52.170;5.386;2022-07-06T07:29:51;22.20;43.90
70807;DHT22;58882;52.170;5.386;2022-07-06T07:32:38;22.40;43.80
70807;DHT22;58882;52.170;5.386;2022-07-06T07:35:18;22.60;43.50
70807;DHT22;58882;52.170;5.386;2022-07-06T07:38:05;22.90;43.10
70807;DHT22;58882;52.170;5.386;2022-07-06T07:40:55;23.30;42.30
70807;DHT22;58882;52.170;5.386;2022-07-06T07:43:35;23.70;42.70
70807;DHT22;58882;52.170;5.386;2022-07-06T07:46:22;24.10;41.40
70807;DHT22;58882;52.170;5.386;2022-07-06T07:49:02;24.50;40.70
70807;DHT22;58882;52.170;5.386;2022-07-06T07:51:49;24.90;39.90
70807;DHT22;58882;52.170;5.386;2022-07-06T07:54:29;25.20;39.70
70807;DHT22;58882;52.170;5.386;2022-07-06T07:57:16;25.60;41.20
70807;DHT22;58882;52.170;5.386;2022-07-06T07:59:56;26.00;41.70
70807;DHT22;58882;52.170;5.386;2022-07-06T08:02:50;26.30;40.90
70807;DHT22;58882;52.170;5.386;2022-07-06T08:05:30;26.60;40.40
70807;DHT22;58882;52.170;5.386;2022-07-06T08:08:24;26.80;40.20
70807;DHT22;58882;52.170;5.386;2022-07-06T08:11:04;27.00;40.80
70807;DHT22;58882;52.170;5.386;2022-07-06T08:13:57;27.30;40.40
70807;DHT22;58882;52.170;5.386;2022-07-06T08:16:37;27.40;40.90
70807;DHT22;58882;52.170;5.386;2022-07-06T08:19:24;27.40;40.70
70807;DHT22;58882;52.170;5.386;2022-07-06T08:22:04;27.50;40.50
70807;DHT22;58882;52.170;5.386;2022-07-06T08:24:53;27.50;40.10
70807;DHT22;58882;52.170;5.386;2022-07-06T08:27:33;27.50;41.20
70807;DHT22;58882;52.170;5.386;2022-07-06T08:30:27;27.50;41.70
70807;DHT22;58882;52.170;5.386;2022-07-06T08:33:07;27.40;41.90
70807;DHT22;58882;52.170;5.386;2022-07-06T08:36:01;27.20;42.00
70807;DHT22;58882;52.170;5.386;2022-07-06T08:38:41;26.70;43.10
70807;DHT22;58882;52.170;5.386;2022-07-06T08:41:29;26.30;44.20
70807;DHT22;58882;52.170;5.386;2022-07-06T08:44:09;25.80;44.00
70807;DHT22;58882;52.170;5.386;2022-07-06T08:47:05;25.40;44.30
70807;DHT22;58882;52.170;5.386;2022-07-06T08:49:46;25.10;45.30
70807;DHT22;58882;52.170;5.386;2022-07-06T08:52:34;24.90;46.10
70807;DHT22;58882;52.170;5.386;2022-07-06T08:55:14;24.70;46.90
70807;DHT22;58882;52.170;5.386;2022-07-06T08:58:02;24.60;46.60
70807;DHT22;58882;52.170;5.386;2022-07-06T09:00:44;24.70;47.00
70807;DHT22;58882;52.170;5.386;2022-07-06T09:03:31;24.90;47.20
70807;DHT22;58882;52.170;5.386;2022-07-06T09:06:14;24.90;47.90
70807;DHT22;58882;52.170;5.386;2022-07-06T09:09:05;25.10;48.40
70807;DHT22;58882;52.170;5.386;2022-07-06T09:11:47;25.30;48.30
70807;DHT22;58882;52.170;5.386;2022-07-06T09:14:43;25.30;48.00
70807;DHT22;58882;52.170;5.386;2022-07-06T09:17:16;25.50;47.80
70807;DHT22;58882;52.170;5.386;2022-07-06T09:20:12;25.70;47.60
70807;DHT22;58882;52.170;5.386;2022-07-06T09:23:04;25.90;47.40
70807;DHT22;58882;52.170;5.386;2022-07-06T09:25:55;25.90;47.50
70807;DHT22;58882;52.170;5.386;2022-07-06T09:28:45;25.80;46.60
70807;DHT22;58882;52.170;5.386;2022-07-06T09:31:40;25.60;46.50
70807;DHT22;58882;52.170;5.386;2022-07-06T09:34:20;25.50;47.10
70807;DHT22;58882;52.170;5.386;2022-07-06T09:37:08;25.40;47.50
70807;DHT22;58882;52.170;5.386;2022-07-06T09:39:48;25.40;47.50
70807;DHT22;58882;52.170;5.386;2022-07-06T09:42:42;25.40;48.00
70807;DHT22;58882;52.170;5.386;2022-07-06T09:45:22;25.40;48.00
70807;DHT22;58882;52.170;5.386;2022-07-06T09:48:24;25.50;48.00
70807;DHT22;58882;52.170;5.386;2022-07-06T09:51:06;25.50;48.10
70807;DHT22;58882;52.170;5.386;2022-07-06T09:54:09;25.50;48.30
70807;DHT22;58882;52.170;5.386;2022-07-06T09:56:50;25.60;48.40
70807;DHT22;58882;52.170;5.386;2022-07-06T09:59:37;25.60;48.60
70807;DHT22;58882;52.170;5.386;2022-07-06T10:02:19;25.60;48.10
70807;DHT22;58882;52.170;5.386;2022-07-06T10:05:16;25.50;48.00
70807;DHT22;58882;52.170;5.386;2022-07-06T10:07:51;25.50;48.10
70807;DHT22;58882;52.170;5.386;2022-07-06T10:10:45;25.50;48.00
70807;DHT22;58882;52.170;5.386;2022-07-06T10:13:27;25.50;48.00
70807;DHT22;58882;52.170;5.386;2022-07-06T10:16:15;25.60;49.10
70807;DHT22;58882;52.170;5.386;2022-07-06T10:18:55;25.50;48.50
70807;DHT22;58882;52.170;5.386;2022-07-06T10:21:50;25.60;48.30
70807;DHT22;58882;52.170;5.386;2022-07-06T10:24:28;25.70;48.20
70807;DHT22;58882;52.170;5.386;2022-07-06T10:27:26;25.90;47.80
70807;DHT22;58882;52.170;5.386;2022-07-06T10:29:59;26.10;47.50
70807;DHT22;58882;52.170;5.386;2022-07-06T10:32:56;26.20;47.40
70807;DHT22;58882;52.170;5.386;2022-07-06T10:35:29;26.20;47.00
70807;DHT22;58882;52.170;5.386;2022-07-06T10:38:31;26.40;47.00
70807;DHT22;58882;52.170;5.386;2022-07-06T10:41:06;26.50;46.70
70807;DHT22;58882;52.170;5.386;2022-07-06T10:44:24;26.40;46.50
70807;DHT22;58882;52.170;5.386;2022-07-06T10:47:04;26.30;46.10
70807;DHT22;58882;52.170;5.386;2022-07-06T10:49:51;26.30;46.30
70807;DHT22;58882;52.170;5.386;2022-07-06T10:53:00;26.20;46.70
70807;DHT22;58882;52.170;5.386;2022-07-06T10:55:56;26.10;46.70
70807;DHT22;58882;52.170;5.386;2022-07-06T11:01:28;26.00;46.90
70807;DHT22;58882;52.170;5.386;2022-07-06T11:06:56;25.90;47.20
70807;DHT22;58882;52.170;5.386;2022-07-06T11:09:57;25.80;47.50
70807;DHT22;58882;52.170;5.386;2022-07-06T11:12:45;25.70;47.90
70807;DHT22;58882;52.170;5.386;2022-07-06T11:15:47;25.70;48.00
70807;DHT22;58882;52.170;5.386;2022-07-06T11:18:50;25.60;47.80
70807;DHT22;58882;52.170;5.386;2022-07-06T11:21:47;25.60;47.80
70807;DHT22;58882;52.170;5.386;2022-07-06T11:24:45;25.70;47.60
70807;DHT22;58882;52.170;5.386;2022-07-06T11:27:25;25.70;47.40
70807;DHT22;58882;52.170;5.386;2022-07-06T11:30:13;25.70;47.20
70807;DHT22;58882;52.170;5.386;2022-07-06T11:33:31;25.70;47.20
70807;DHT22;58882;52.170;5.386;2022-07-06T11:36:22;25.80;47.10
70807;DHT22;58882;52.170;5.386;2022-07-06T11:39:15;25.90;47.00
70807;DHT22;58882;52.170;5.386;2022-07-06T11:42:10;25.90;47.80
70807;DHT22;58882;52.170;5.386;2022-07-06T11:44:53;26.10;46.60
70807;DHT22;58882;52.170;5.386;2022-07-06T11:47:40;26.20;46.60
70807;DHT22;58882;52.170;5.386;2022-07-06T11:50:20;26.20;46.40
70807;DHT22;58882;52.170;5.386;2022-07-06T11:53:07;26.30;46.20
70807;DHT22;58882;52.170;5.386;2022-07-06T11:55:40;26.40;46.00
70807;DHT22;58882;52.170;5.386;2022-07-06T11:58:35;26.40;45.70
70807;DHT22;58882;52.170;5.386;2022-07-06T12:01:16;26.40;45.50
70807;DHT22;58882;52.170;5.386;2022-07-06T12:04:03;26.40;45.50
70807;DHT22;58882;52.170;5.386;2022-07-06T12:06:37;26.40;44.00
70807;DHT22;58882;52.170;5.386;2022-07-06T12:09:32;26.40;44.60
70807;DHT22;58882;52.170;5.386;2022-07-06T12:12:13;26.30;44.80
70807;DHT22;58882;52.170;5.386;2022-07-06T12:15:00;26.30;45.10
70807;DHT22;58882;52.170;5.386;2022-07-06T12:17:47;26.20;45.10
70807;DHT22;58882;52.170;5.386;2022-07-06T12:20:41;26.20;45.20
70807;DHT22;58882;52.170;5.386;2022-07-06T12:23:21;26.10;45.40
70807;DHT22;58882;52.170;5.386;2022-07-06T12:26:09;26.00;45.10
70807;DHT22;58882;52.170;5.386;2022-07-06T12:28:44;26.00;45.40
70807;DHT22;58882;52.170;5.386;2022-07-06T12:31:58;25.90;45.70
70807;DHT22;58882;52.170;5.386;2022-07-06T12:34:32;25.80;44.90
70807;DHT22;58882;52.170;5.386;2022-07-06T12:37:26;25.90;45.00
70807;DHT22;58882;52.170;5.386;2022-07-06T12:39:59;25.80;44.10
70807;DHT22;58882;52.170;5.386;2022-07-06T12:42:53;25.80;44.50
70807;DHT22;58882;52.170;5.386;2022-07-06T12:45:33;25.70;44.70
70807;DHT22;58882;52.170;5.386;2022-07-06T12:48:20;25.70;45.00
70807;DHT22;58882;52.170;5.386;2022-07-06T12:51:00;25.60;45.10
70807;DHT22;58882;52.170;5.386;2022-07-06T12:53:47;25.60;44.90
70807;DHT22;58882;52.170;5.386;2022-07-06T12:56:27;25.50;44.80
70807;DHT22;58882;52.170;5.386;2022-07-06T12:59:24;25.40;44.60
70807;DHT22;58882;52.170;5.386;2022-07-06T13:02:06;25.40;44.30
70807;DHT22;58882;52.170;5.386;2022-07-06T13:04:59;25.40;44.10
70807;DHT22;58882;52.170;5.386;2022-07-06T13:07:35;25.40;44.20
70807;DHT22;58882;52.170;5.386;2022-07-06T13:10:29;25.40;44.10
70807;DHT22;58882;52.170;5.386;2022-07-06T13:13:09;25.30;44.10
70807;DHT22;58882;52.170;5.386;2022-07-06T13:15:56;25.30;44.10
70807;DHT22;58882;52.170;5.386;2022-07-06T13:18:29;25.30;44.20
70807;DHT22;58882;52.170;5.386;2022-07-06T13:21:23;25.30;44.30
70807;DHT22;58882;52.170;5.386;2022-07-06T13:24:04;25.20;43.70
70807;DHT22;58882;52.170;5.386;2022-07-06T13:26:51;25.20;43.30
70807;DHT22;58882;52.170;5.386;2022-07-06T13:29:31;25.20;43.30
70807;DHT22;58882;52.170;5.386;2022-07-06T13:32:18;25.20;42.30
70807;DHT22;58882;52.170;5.386;2022-07-06T13:34:58;25.20;42.00
70807;DHT22;58882;52.170;5.386;2022-07-06T13:37:45;25.20;42.50
70807;DHT22;58882;52.170;5.386;2022-07-06T13:40:43;25.10;42.80
70807;DHT22;58882;52.170;5.386;2022-07-06T13:43:37;25.10;42.90
70807;DHT22;58882;52.170;5.386;2022-07-06T13:46:17;25.10;42.90
70807;DHT22;58882;52.170;5.386;2022-07-06T13:49:11;25.10;43.00
70807;DHT22;58882;52.170;5.386;2022-07-06T13:51:45;25.00;42.90
70807;DHT22;58882;52.170;5.386;2022-07-06T13:54:41;25.00;42.80
70807;DHT22;58882;52.170;5.386;2022-07-06T13:57:14;25.00;42.60
70807;DHT22;58882;52.170;5.386;2022-07-06T14:00:09;25.00;42.70
70807;DHT22;58882;52.170;5.386;2022-07-06T14:02:49;24.90;43.10
70807;DHT22;58882;52.170;5.386;2022-07-06T14:05:43;24.90;43.20
70807;DHT22;58882;52.170;5.386;2022-07-06T14:08:16;24.90;43.00
70807;DHT22;58882;52.170;5.386;2022-07-06T14:11:10;24.90;43.10
70807;DHT22;58882;52.170;5.386;2022-07-06T14:13:50;24.90;42.90
70807;DHT22;58882;52.170;5.386;2022-07-06T14:16:37;24.90;42.70
70807;DHT22;58882;52.170;5.386;2022-07-06T14:19:20;24.90;42.60
70807;DHT22;58882;52.170;5.386;2022-07-06T14:22:07;24.90;42.10
70807;DHT22;58882;52.170;5.386;2022-07-06T14:24:47;24.90;41.90
70807;DHT22;58882;52.170;5.386;2022-07-06T14:27:41;24.90;41.80
70807;DHT22;58882;52.170;5.386;2022-07-06T14:30:21;24.90;41.00
70807;DHT22;58882;52.170;5.386;2022-07-06T14:33:09;24.80;41.30
70807;DHT22;58882;52.170;5.386;2022-07-06T14:35:50;24.80;41.80
70807;DHT22;58882;52.170;5.386;2022-07-06T14:38:37;24.70;39.90
70807;DHT22;58882;52.170;5.386;2022-07-06T14:41:10;24.70;40.40
70807;DHT22;58882;52.170;5.386;2022-07-06T14:44:04;24.70;40.80
70807;DHT22;58882;52.170;5.386;2022-07-06T14:46:44;24.70;41.20
70807;DHT22;58882;52.170;5.386;2022-07-06T14:49:31;24.70;40.80
70807;DHT22;58882;52.170;5.386;2022-07-06T14:52:11;24.60;40.70
70807;DHT22;58882;52.170;5.386;2022-07-06T14:54:58;24.60;41.00
70807;DHT22;58882;52.170;5.386;2022-07-06T14:57:46;24.60;41.40
70807;DHT22;58882;52.170;5.386;2022-07-06T15:00:41;24.60;41.40
70807;DHT22;58882;52.170;5.386;2022-07-06T15:03:14;24.60;39.90
70807;DHT22;58882;52.170;5.386;2022-07-06T15:06:09;24.50;39.80
70807;DHT22;58882;52.170;5.386;2022-07-06T15:09:03;24.50;40.40
70807;DHT22;58882;52.170;5.386;2022-07-06T15:11:57;24.50;40.20
70807;DHT22;58882;52.170;5.386;2022-07-06T15:14:37;24.50;39.80
70807;DHT22;58882;52.170;5.386;2022-07-06T15:17:24;24.50;40.20
70807;DHT22;58882;52.170;5.386;2022-07-06T15:20:05;24.50;40.70
70807;DHT22;58882;52.170;5.386;2022-07-06T15:22:52;24.50;40.40
70807;DHT22;58882;52.170;5.386;2022-07-06T15:25:26;24.50;40.70
70807;DHT22;58882;52.170;5.386;2022-07-06T15:28:20;24.50;40.70
70807;DHT22;58882;52.170;5.386;2022-07-06T15:31:00;24.40;40.60
70807;DHT22;58882;52.170;5.386;2022-07-06T15:33:47;24.50;40.70
70807;DHT22;58882;52.170;5.386;2022-07-06T15:36:27;24.50;40.70
70807;DHT22;58882;52.170;5.386;2022-07-06T15:39:16;24.50;40.70
70807;DHT22;58882;52.170;5.386;2022-07-06T15:42:03;24.40;40.60
70807;DHT22;58882;52.170;5.386;2022-07-06T15:44:50;24.40;40.60
70807;DHT22;58882;52.170;5.386;2022-07-06T15:47:32;24.30;40.60
70807;DHT22;58882;52.170;5.386;2022-07-06T15:50:19;24.20;40.90
70807;DHT22;58882;52.170;5.386;2022-07-06T15:53:01;24.20;41.50
70807;DHT22;58882;52.170;5.386;2022-07-06T15:55:56;24.20;41.50
70807;DHT22;58882;52.170;5.386;2022-07-06T15:58:36;24.20;41.50
70807;DHT22;58882;52.170;5.386;2022-07-06T16:01:23;24.10;41.50
70807;DHT22;58882;52.170;5.386;2022-07-06T16:04:03;24.00;41.90
70807;DHT22;58882;52.170;5.386;2022-07-06T16:06:50;24.00;41.90
70807;DHT22;58882;52.170;5.386;2022-07-06T16:09:50;24.00;42.30
70807;DHT22;58882;52.170;5.386;2022-07-06T16:12:44;24.10;42.50
70807;DHT22;58882;52.170;5.386;2022-07-06T16:15:25;24.10;42.60
70807;DHT22;58882;52.170;5.386;2022-07-06T16:18:12;24.10;42.50
70807;DHT22;58882;52.170;5.386;2022-07-06T16:20:52;24.20;42.50
70807;DHT22;58882;52.170;5.386;2022-07-06T16:23:46;24.20;42.30
70807;DHT22;58882;52.170;5.386;2022-07-06T16:26:26;24.20;42.50
70807;DHT22;58882;52.170;5.386;2022-07-06T16:29:13;24.20;42.50
70807;DHT22;58882;52.170;5.386;2022-07-06T16:31:53;24.20;42.20
70807;DHT22;58882;52.170;5.386;2022-07-06T16:34:40;24.20;42.10
70807;DHT22;58882;52.170;5.386;2022-07-06T16:37:20;24.10;42.00
70807;DHT22;58882;52.170;5.386;2022-07-06T16:40:08;24.20;42.30
70807;DHT22;58882;52.170;5.386;2022-07-06T16:43:02;24.20;42.60
70807;DHT22;58882;52.170;5.386;2022-07-06T16:45:42;24.20;42.00
70807;DHT22;58882;52.170;5.386;2022-07-06T16:48:29;24.20;42.10
70807;DHT22;58882;52.170;5.386;2022-07-06T16:51:09;24.10;42.00
70807;DHT22;58882;52.170;5.386;2022-07-06T16:53:56;24.00;42.10
70807;DHT22;58882;52.170;5.386;2022-07-06T16:56:29;24.00;42.30
70807;DHT22;58882;52.170;5.386;2022-07-06T16:59:24;24.00;42.30
70807;DHT22;58882;52.170;5.386;2022-07-06T17:01:57;24.00;42.40
70807;DHT22;58882;52.170;5.386;2022-07-06T17:04:51;24.10;42.60
70807;DHT22;58882;52.170;5.386;2022-07-06T17:07:31;24.10;42.60
70807;DHT22;58882;52.170;5.386;2022-07-06T17:10:18;24.20;42.40
70807;DHT22;58882;52.170;5.386;2022-07-06T17:12:58;24.00;43.10
70807;DHT22;58882;52.170;5.386;2022-07-06T17:15:45;24.00;42.10
70807;DHT22;58882;52.170;5.386;2022-07-06T17:18:27;23.80;42.20
70807;DHT22;58882;52.170;5.386;2022-07-06T17:21:14;23.70;42.60
70807;DHT22;58882;52.170;5.386;2022-07-06T17:23:54;23.70;42.70
70807;DHT22;58882;52.170;5.386;2022-07-06T17:26:41;23.70;42.80
70807;DHT22;58882;52.170;5.386;2022-07-06T17:29:21;23.80;42.60
70807;DHT22;58882;52.170;5.386;2022-07-06T17:32:08;23.70;42.50